aviador You're here:

KICT Decoded Metar

WICHITA in KS, USA
Report Time2018-01-22 00:53:00
UTC Time2018-01-22 01:58:55
Flight Rules vfr VFR
Wind320° at 08 kt
W.Decomp.*RWY 32: 7.9 kt HW 1 kt LCW
RWY 01: 4.4 kt HW 6.7 kt LCW
W.Rank320° ranks 18
Current wind is below 320° avg. (9.1)
Visibility9999 m
Phenomena:N/A
Clouds:Few 075 Hf
Overcast 100 Hf
Expected CloudBase > 3,600 ft AGL from Temp-Dew spread
Ceiling10,000 ft
Temp11°C (ISA -1)
Dew Point02°C (54% RH)
AAT6.5°C
QNH1002 hPa
Density Alt1,650 ft
Elevation1,335 ft
Report Wrong Elevation
Raw Report
KICT 220053Z 32008KT 10SM FEW075 OVC100 11/02 A2958 RMK AO2 LTG
DSNT W SLP015 T01110017=

Extra information for KICT:More info

Metar Taf Metar & Taf Last 4 Metars F.Rules Stats Wind Profile Meteogram Temp Stats Airport Information Weather charts Add Link Nearby VenuesMetar ALERT Operation Metar Decoded Social comments

AIRNAV info for KICT